SRQ weather

Sarasota Bradenton International Airport
Sarasota/Bradenton, Florida, United States

Public forecast

Using degrees Fahrenheit for public forecast. Weather courtesy of forecast.io.

Current aviation weather report (METAR) for Sarasota Bradenton International Airport

Retrieved 2019/11/19 10:53 UTC (50 minutes ago):

KSRQ 191053Z AUTO 07003KT 8SM CLR 14/13 A2988 RMK AO2 SLP117 T01440133

Aviation forecast (TAF) for Sarasota Bradenton International Airport

Retrieved 2019/11/19 06:33 UTC (5 hours ago):

TAF KSRQ 190530Z 1906/2006 VRB03KT P6SM FEW020 FM191400 31011KT P6SM FEW030 SCT250 FM200100 VRB03KT P6SM SKC